createdAt,value
2023-01-26T00:00:15.972Z,-2.73
2023-01-26T00:00:47.206Z,-2.73
2023-01-26T00:01:18.027Z,-2.73
2023-01-26T00:01:50.190Z,-2.73
2023-01-26T00:02:20.212Z,-2.73
2023-01-26T00:02:51.348Z,-2.73
2023-01-26T00:03:22.196Z,-2.73
2023-01-26T00:03:53.217Z,-2.73
2023-01-26T00:04:23.728Z,-2.87
2023-01-26T00:04:55.126Z,-2.98
2023-01-26T00:05:25.978Z,-2.98
2023-01-26T00:05:57.237Z,-2.98
2023-01-26T00:06:28.102Z,-2.98
2023-01-26T00:06:59.833Z,-2.98
2023-01-26T00:07:29.608Z,-3.03
2023-01-26T00:08:00.944Z,-3.03
2023-01-26T00:08:31.687Z,-3.03
2023-01-26T00:09:03.632Z,-3.03
2023-01-26T00:09:33.917Z,-3.03
2023-01-26T00:10:05.209Z,-3.03
2023-01-26T00:10:35.963Z,-2.98
2023-01-26T00:11:07.151Z,-2.98
2023-01-26T00:11:37.942Z,-2.98
2023-01-26T00:12:09.880Z,-2.98
2023-01-26T00:12:39.634Z,-2.84
2023-01-26T00:13:10.736Z,-2.84
2023-01-26T00:13:41.730Z,-2.84
2023-01-26T00:14:13.002Z,-2.98
2023-01-26T00:14:44.016Z,-2.98
2023-01-26T00:15:15.545Z,-2.84
2023-01-26T00:15:46.357Z,-2.98
2023-01-26T00:16:17.453Z,-2.84
2023-01-26T00:16:48.065Z,-2.84
2023-01-26T00:17:20.319Z,-2.98
2023-01-26T00:17:50.067Z,-2.98
2023-01-26T00:18:21.104Z,-2.98
2023-01-26T00:18:52.181Z,-2.98
2023-01-26T00:19:23.052Z,-2.98
2023-01-26T00:19:53.735Z,-2.98
2023-01-26T00:20:25.028Z,-2.98
2023-01-26T00:20:56.104Z,-2.98
2023-01-26T00:21:27.033Z,-2.98
2023-01-26T00:21:57.729Z,-2.98
2023-01-26T00:22:29.954Z,-2.98
2023-01-26T00:22:59.805Z,-2.98
2023-01-26T00:23:30.917Z,-2.98
2023-01-26T00:24:01.959Z,-2.98
2023-01-26T00:24:32.829Z,-2.98
2023-01-26T00:25:04.075Z,-2.98
2023-01-26T00:25:35.018Z,-2.98
2023-01-26T00:26:05.943Z,-2.98
2023-01-26T00:26:37.008Z,-2.98
2023-01-26T00:27:08.318Z,-2.98
2023-01-26T00:27:40.315Z,-2.98
2023-01-26T00:28:11.199Z,-2.98
2023-01-26T00:28:40.761Z,-3.11
2023-01-26T00:29:11.958Z,-3.11
2023-01-26T00:29:43.089Z,-3.11
2023-01-26T00:30:14.132Z,-3.11
2023-01-26T00:30:44.839Z,-3.11
2023-01-26T00:31:16.187Z,-3.11
2023-01-26T00:31:47.247Z,-3.25
2023-01-26T00:32:18.532Z,-3.25
2023-01-26T00:32:50.241Z,-3.25
2023-01-26T00:33:20.042Z,-3.25
2023-01-26T00:33:51.160Z,-3.25
2023-01-26T00:34:22.088Z,-3.14
2023-01-26T00:34:53.145Z,-3.14
2023-01-26T00:35:24.013Z,-3.14
2023-01-26T00:35:55.201Z,-3.14
2023-01-26T00:36:25.843Z,-3.14
2023-01-26T00:36:56.816Z,-3.14
2023-01-26T00:37:28.108Z,-3.14
2023-01-26T00:38:00.033Z,-3.14
2023-01-26T00:38:30.077Z,-3.14
2023-01-26T00:39:01.268Z,-3.14
2023-01-26T00:39:32.115Z,-3.14
2023-01-26T00:40:04.700Z,-3.14
2023-01-26T00:40:34.462Z,-3.14
2023-01-26T00:41:05.390Z,-3.14
2023-01-26T00:41:36.091Z,-3.14
2023-01-26T00:42:07.038Z,-3.14
2023-01-26T00:42:38.573Z,-3.14
2023-01-26T00:43:10.053Z,-3.14
2023-01-26T00:43:40.132Z,-3.14
2023-01-26T00:44:11.164Z,-3.14
2023-01-26T00:44:41.870Z,-3.14
2023-01-26T00:45:13.201Z,-3.14
2023-01-26T00:45:43.869Z,-3.14
2023-01-26T00:46:14.805Z,-3.14
2023-01-26T00:46:45.983Z,-3.14
2023-01-26T00:47:17.126Z,-3.14
2023-01-26T00:47:48.138Z,-3.14
2023-01-26T00:48:20.010Z,-3.14
2023-01-26T00:48:49.918Z,-3.14
2023-01-26T00:49:21.140Z,-3.03
2023-01-26T00:49:51.917Z,-3.03
2023-01-26T00:50:23.176Z,-3.03
2023-01-26T00:50:54.153Z,-3.03
2023-01-26T00:51:25.258Z,-3.03
2023-01-26T00:51:56.046Z,-3.03
2023-01-26T00:52:27.161Z,-3.03
2023-01-26T00:52:58.048Z,-3.03
2023-01-26T00:53:29.881Z,-3.03
2023-01-26T00:53:59.912Z,-3.03
2023-01-26T00:54:30.856Z,-3.03
2023-01-26T00:55:01.755Z,-3.03
2023-01-26T00:55:33.110Z,-3.03
2023-01-26T00:56:03.844Z,-3.03
2023-01-26T00:56:35.069Z,-3.03
2023-01-26T00:57:06.038Z,-3.03
2023-01-26T00:57:36.945Z,-3.03
2023-01-26T00:58:08.045Z,-3.03
2023-01-26T00:58:39.987Z,-3.03
2023-01-26T00:59:10.724Z,-3.03
2023-01-26T00:59:40.897Z,-3.03
2023-01-26T01:00:14.553Z,-3.03
2023-01-26T01:00:43.174Z,-3.03
2023-01-26T01:01:14.066Z,-3.03
2023-01-26T01:01:44.921Z,-3.03
2023-01-26T01:02:16.079Z,-3.03
2023-01-26T01:02:46.938Z,-3.03
2023-01-26T01:03:18.258Z,-3.03
2023-01-26T01:03:50.168Z,-3.03
2023-01-26T01:04:19.923Z,-3.03
2023-01-26T01:04:51.169Z,-3.03
2023-01-26T01:05:22.060Z,-3.03
2023-01-26T01:05:53.009Z,-3.03
2023-01-26T01:06:23.999Z,-3.03
2023-01-26T01:06:54.944Z,-3.03
2023-01-26T01:07:25.706Z,-3.03
2023-01-26T01:07:56.795Z,-3.03
2023-01-26T01:08:27.947Z,-3.03
2023-01-26T01:08:59.949Z,-3.03
2023-01-26T01:09:30.241Z,-3.03
2023-01-26T01:10:01.209Z,-3.03
2023-01-26T01:10:32.196Z,-3.03
2023-01-26T01:11:03.444Z,-3.03
2023-01-26T01:11:34.477Z,-3.03
2023-01-26T01:12:05.273Z,-3.14
2023-01-26T01:12:36.156Z,-3.14
2023-01-26T01:13:07.437Z,-3.14
2023-01-26T01:13:38.169Z,-3.14
2023-01-26T01:14:10.296Z,-3.14
2023-01-26T01:14:40.077Z,-3.14
2023-01-26T01:15:13.895Z,-3.14
2023-01-26T01:15:42.033Z,-3.14
2023-01-26T01:16:12.905Z,-3.14
2023-01-26T01:16:44.005Z,-3.14
2023-01-26T01:17:14.985Z,-3.14
2023-01-26T01:17:45.965Z,-3.14
2023-01-26T01:18:16.757Z,-3.14
2023-01-26T01:18:48.137Z,-3.14
2023-01-26T01:19:20.257Z,-3.14
2023-01-26T01:19:50.421Z,-3.14
2023-01-26T01:20:20.917Z,-3.14
2023-01-26T01:20:52.146Z,-3.14
2023-01-26T01:21:23.008Z,-3.14
2023-01-26T01:21:54.108Z,-3.14
2023-01-26T01:22:25.188Z,-3.14
2023-01-26T01:22:55.877Z,-3.14
2023-01-26T01:23:26.824Z,-3.14
2023-01-26T01:23:58.018Z,-3.14
2023-01-26T01:24:30.150Z,-3.14
2023-01-26T01:25:00.335Z,-3.14
2023-01-26T01:25:31.204Z,-3.14
2023-01-26T01:26:02.165Z,-3.14
2023-01-26T01:26:32.979Z,-3.14
2023-01-26T01:27:04.117Z,-3.14
2023-01-26T01:27:35.285Z,-3.14
2023-01-26T01:28:06.541Z,-3.14
2023-01-26T01:28:36.866Z,-3.14
2023-01-26T01:29:08.118Z,-3.14
2023-01-26T01:29:40.195Z,-3.14
2023-01-26T01:30:14.545Z,-3.14
2023-01-26T01:30:41.085Z,-3.14
2023-01-26T01:31:11.891Z,-3.14
2023-01-26T01:31:42.905Z,-3.14
2023-01-26T01:32:14.286Z,-3.14
2023-01-26T01:32:45.216Z,-3.14
2023-01-26T01:33:16.477Z,-3.14
2023-01-26T01:33:46.989Z,-3.14
2023-01-26T01:34:18.051Z,-3.14
2023-01-26T01:34:50.097Z,-3.14
2023-01-26T01:35:20.222Z,-3.14
2023-01-26T01:35:51.095Z,-3.14
2023-01-26T01:36:22.165Z,-3.14
2023-01-26T01:36:53.376Z,-3.14
2023-01-26T01:37:24.116Z,-3.14
2023-01-26T01:37:54.837Z,-3.14
2023-01-26T01:38:25.827Z,-3.14
2023-01-26T01:38:57.040Z,-3.14
2023-01-26T01:39:27.997Z,-3.14
2023-01-26T01:40:00.008Z,-3.14
2023-01-26T01:48:28.927Z,-3.14
2023-01-26T01:48:46.841Z,-3.14
2023-01-26T01:49:17.509Z,-3.14
2023-01-26T01:49:48.719Z,-3.14
2023-01-26T01:50:20.479Z,-3.14
2023-01-26T01:50:50.328Z,-3.00
2023-01-26T01:51:21.448Z,-3.00
2023-01-26T01:51:52.362Z,-3.00
2023-01-26T01:52:23.095Z,-3.00
2023-01-26T01:52:54.156Z,-3.00
2023-01-26T01:53:25.902Z,-3.00
2023-01-26T01:53:56.690Z,-3.00
2023-01-26T01:54:27.281Z,-3.00
2023-01-26T01:54:58.239Z,-3.00
2023-01-26T01:55:30.415Z,-3.00
2023-01-26T01:56:00.218Z,-3.00
2023-01-26T01:56:31.343Z,-3.00
2023-01-26T01:57:02.838Z,-3.00
2023-01-26T01:57:33.571Z,-3.00
2023-01-26T01:58:04.619Z,-3.00
2023-01-26T01:58:35.458Z,-3.14
2023-01-26T01:59:06.368Z,-3.14
2023-01-26T01:59:37.267Z,-3.14
2023-01-26T02:00:12.386Z,-3.14
2023-01-26T02:00:40.297Z,-3.25
2023-01-26T02:01:15.914Z,-3.25
2023-01-26T02:01:41.230Z,-3.25
2023-01-26T02:02:12.108Z,-3.25
2023-01-26T02:02:43.049Z,-3.25
2023-01-26T02:03:15.094Z,-3.25
2023-01-26T02:03:45.690Z,-3.25
2023-01-26T02:04:16.966Z,-3.25
2023-01-26T02:04:48.528Z,-3.25
2023-01-26T02:05:18.390Z,-3.25
2023-01-26T02:05:50.168Z,-3.25
2023-01-26T02:06:20.557Z,-3.25
2023-01-26T02:06:50.843Z,-3.25
2023-01-26T02:07:22.011Z,-3.25
2023-01-26T02:07:53.277Z,-3.25
2023-01-26T02:08:24.095Z,-3.11
2023-01-26T02:08:55.096Z,-3.11
2023-01-26T02:09:25.813Z,-3.00
2023-01-26T02:09:57.237Z,-3.00
2023-01-26T02:10:28.655Z,-3.00
2023-01-26T02:11:00.361Z,-3.00
2023-01-26T02:11:30.613Z,-3.00
2023-01-26T02:12:02.119Z,-3.00
2023-01-26T02:12:34.130Z,-3.00
2023-01-26T02:13:03.378Z,-3.14
2023-01-26T02:13:39.215Z,-3.25
2023-01-26T02:14:05.596Z,-3.25
2023-01-26T02:14:38.522Z,-3.25
2023-01-26T02:15:16.271Z,-3.25
2023-01-26T02:15:38.847Z,-3.25
2023-01-26T02:16:10.512Z,-3.25
2023-01-26T02:16:40.179Z,-3.25
2023-01-26T02:17:11.114Z,-3.25
2023-01-26T02:17:42.085Z,-3.25
2023-01-26T02:18:12.976Z,-3.25
2023-01-26T02:18:45.113Z,-3.25
2023-01-26T02:19:15.544Z,-3.25
2023-01-26T02:19:47.566Z,-3.25
2023-01-26T02:20:17.493Z,-3.25
2023-01-26T02:20:48.307Z,-3.25
2023-01-26T02:21:20.159Z,-3.25
2023-01-26T02:21:50.665Z,-3.25
2023-01-26T02:22:23.354Z,-3.25
2023-01-26T02:22:52.294Z,-3.25
2023-01-26T02:23:23.285Z,-3.25
2023-01-26T02:23:54.641Z,-3.25
2023-01-26T02:24:25.530Z,-3.25
2023-01-26T02:24:56.195Z,-3.25
2023-01-26T02:25:27.249Z,-3.25
2023-01-26T02:25:58.178Z,-3.25
2023-01-26T02:26:30.483Z,-3.25
2023-01-26T02:27:01.914Z,-3.25
2023-01-26T02:27:31.313Z,-3.25
2023-01-26T02:28:02.345Z,-3.25
2023-01-26T02:28:34.586Z,-3.25
2023-01-26T02:29:04.206Z,-3.25
2023-01-26T02:29:35.311Z,-3.25
2023-01-26T02:30:09.813Z,-3.11
2023-01-26T02:30:37.194Z,-3.11
2023-01-26T02:31:08.133Z,-3.11
2023-01-26T02:31:40.562Z,-3.25
2023-01-26T02:32:11.508Z,-3.25
2023-01-26T02:32:41.222Z,-3.25
2023-01-26T02:33:12.224Z,-3.25
2023-01-26T02:33:43.211Z,-3.25
2023-01-26T02:34:14.407Z,-3.25
2023-01-26T02:34:45.421Z,-3.25
2023-01-26T02:35:17.200Z,-3.25
2023-01-26T02:35:47.361Z,-3.25
2023-01-26T02:36:18.055Z,-3.25
2023-01-26T02:36:50.187Z,-3.25
2023-01-26T02:37:20.258Z,-3.25
2023-01-26T02:37:51.318Z,-3.25
2023-01-26T02:38:22.720Z,-3.25
2023-01-26T02:38:53.129Z,-3.25
2023-01-26T02:39:23.967Z,-3.25
2023-01-26T02:39:54.921Z,-3.25
2023-01-26T02:40:26.135Z,-3.25
2023-01-26T02:40:57.354Z,-3.25
2023-01-26T02:41:28.550Z,-3.25
2023-01-26T02:42:00.368Z,-3.25
2023-01-26T02:42:30.083Z,-3.25
2023-01-26T02:43:01.337Z,-3.25
2023-01-26T02:43:32.329Z,-3.25
2023-01-26T02:44:03.282Z,-3.25
2023-01-26T02:44:34.167Z,-3.25
2023-01-26T02:45:08.146Z,-3.25
2023-01-26T02:45:36.224Z,-3.25
2023-01-26T02:46:07.295Z,-3.25
2023-01-26T02:46:38.460Z,-3.25
2023-01-26T02:47:10.091Z,-3.25
2023-01-26T02:47:40.084Z,-3.30
2023-01-26T02:48:10.906Z,-3.30
2023-01-26T02:48:42.399Z,-3.30
2023-01-26T02:49:13.310Z,-3.30
2023-01-26T02:49:44.614Z,-3.30
2023-01-26T02:50:15.231Z,-3.30
2023-01-26T02:50:47.379Z,-3.30
2023-01-26T02:51:17.367Z,-3.30
2023-01-26T02:51:48.959Z,-3.30
2023-01-26T02:52:21.277Z,-3.30
2023-01-26T02:52:50.317Z,-3.30
2023-01-26T02:53:21.329Z,-3.30
2023-01-26T02:53:52.032Z,-3.30
2023-01-26T02:54:23.262Z,-3.30
2023-01-26T02:54:54.606Z,-3.30
2023-01-26T02:55:25.606Z,-3.30
2023-01-26T02:55:56.081Z,-3.30
2023-01-26T02:56:27.252Z,-3.30
2023-01-26T02:56:58.977Z,-3.30
2023-01-26T02:57:30.348Z,-3.30
2023-01-26T02:58:00.268Z,-3.30
2023-01-26T02:58:31.376Z,-3.30
2023-01-26T02:59:02.226Z,-3.30
2023-01-26T02:59:33.344Z,-3.40
2023-01-26T03:00:07.073Z,-3.40
2023-01-26T03:00:35.336Z,-3.40
2023-01-26T03:01:06.578Z,-3.40
2023-01-26T03:01:37.410Z,-3.40
2023-01-26T03:02:08.193Z,-3.40
2023-01-26T03:02:40.623Z,-3.40
2023-01-26T03:03:11.285Z,-3.40
2023-01-26T03:03:41.303Z,-3.40
2023-01-26T03:04:12.166Z,-3.40
2023-01-26T03:04:43.491Z,-3.40
2023-01-26T03:05:14.573Z,-3.40
2023-01-26T03:05:45.195Z,-3.40
2023-01-26T03:06:16.635Z,-3.40
2023-01-26T03:06:47.554Z,-3.30
2023-01-26T03:07:18.337Z,-3.30
2023-01-26T03:07:50.211Z,-3.30
2023-01-26T03:08:20.187Z,-3.40
2023-01-26T03:08:51.483Z,-3.40
2023-01-26T03:09:22.483Z,-3.40
2023-01-26T03:09:53.184Z,-3.40
2023-01-26T03:10:24.022Z,-3.30
2023-01-26T03:10:55.105Z,-3.40
2023-01-26T03:11:26.435Z,-3.30
2023-01-26T03:11:57.261Z,-3.30
2023-01-26T03:12:28.405Z,-3.30
2023-01-26T03:13:00.519Z,-3.30
2023-01-26T03:13:30.313Z,-3.30
2023-01-26T03:14:01.284Z,-3.30
2023-01-26T03:14:32.449Z,-3.30
2023-01-26T03:15:06.787Z,-3.30
2023-01-26T03:15:34.258Z,-3.30
2023-01-26T03:16:05.363Z,-3.30
2023-01-26T03:16:36.583Z,-3.30
2023-01-26T03:17:07.499Z,-3.30
2023-01-26T03:17:38.431Z,-3.30
2023-01-26T03:18:10.612Z,-3.40
2023-01-26T03:18:41.413Z,-3.40
2023-01-26T03:19:11.353Z,-3.40
2023-01-26T03:19:42.352Z,-3.40
2023-01-26T03:20:13.423Z,-3.40
2023-01-26T03:20:44.478Z,-3.40
2023-01-26T03:21:15.266Z,-3.40
2023-01-26T03:21:46.643Z,-3.40
2023-01-26T03:22:17.770Z,-3.40
2023-01-26T03:22:48.594Z,-3.40
2023-01-26T03:23:20.650Z,-3.40
2023-01-26T03:23:50.430Z,-3.40
2023-01-26T03:24:21.028Z,-3.40
2023-01-26T03:24:52.483Z,-3.40
2023-01-26T03:25:23.643Z,-3.40
2023-01-26T03:25:54.273Z,-3.40
2023-01-26T03:26:25.533Z,-3.40
2023-01-26T03:26:56.167Z,-3.40
2023-01-26T03:27:27.167Z,-3.40
2023-01-26T03:27:58.078Z,-3.40
2023-01-26T03:28:30.420Z,-3.40
2023-01-26T03:29:00.159Z,-3.40
2023-01-26T03:29:31.382Z,-3.40
2023-01-26T03:30:04.898Z,-3.40
2023-01-26T03:30:33.363Z,-3.40
2023-01-26T03:31:04.797Z,-3.40
2023-01-26T03:31:35.698Z,-3.40
2023-01-26T03:32:06.346Z,-3.40
2023-01-26T03:32:37.191Z,-3.40
2023-01-26T03:33:08.262Z,-3.40
2023-01-26T03:33:40.236Z,-3.40
2023-01-26T03:34:11.530Z,-3.40
2023-01-26T03:34:41.532Z,-3.40
2023-01-26T03:35:12.565Z,-3.40
2023-01-26T03:35:43.597Z,-3.27
2023-01-26T03:36:14.314Z,-3.40
2023-01-26T03:36:45.279Z,-3.40
2023-01-26T03:37:16.117Z,-3.40
2023-01-26T03:37:47.312Z,-3.40
2023-01-26T03:38:18.557Z,-3.40
2023-01-26T03:38:50.562Z,-3.40
2023-01-26T03:39:20.426Z,-3.40
2023-01-26T03:39:51.132Z,-3.52
2023-01-26T03:40:22.410Z,-3.52
2023-01-26T03:40:53.309Z,-3.52
2023-01-26T03:41:24.339Z,-3.52
2023-01-26T03:41:55.387Z,-3.52
2023-01-26T03:42:26.379Z,-3.52
2023-01-26T03:42:57.631Z,-3.52
2023-01-26T03:43:29.352Z,-3.52
2023-01-26T03:44:00.331Z,-3.52
2023-01-26T03:44:30.506Z,-3.52
2023-01-26T03:45:05.658Z,-3.52
2023-01-26T03:45:32.414Z,-3.52
2023-01-26T03:46:03.320Z,-3.52
2023-01-26T03:46:34.450Z,-3.52
2023-01-26T03:47:05.262Z,-3.52
2023-01-26T03:47:36.236Z,-3.52
2023-01-26T03:48:07.285Z,-3.52
2023-01-26T03:48:39.475Z,-3.52
2023-01-26T03:49:10.314Z,-3.52
2023-01-26T03:49:41.700Z,-3.52
2023-01-26T03:50:11.778Z,-3.52
2023-01-26T03:50:42.271Z,-3.52
2023-01-26T03:51:13.398Z,-3.52
2023-01-26T03:51:44.231Z,-3.52
2023-01-26T03:52:15.417Z,-3.52
2023-01-26T03:52:46.546Z,-3.52
2023-01-26T03:53:17.901Z,-3.52
2023-01-26T03:53:48.366Z,-3.52
2023-01-26T03:54:20.134Z,-3.52
2023-01-26T03:54:50.321Z,-3.52
2023-01-26T03:55:21.716Z,-3.52
2023-01-26T03:55:52.156Z,-3.52
2023-01-26T03:56:23.439Z,-3.52
2023-01-26T03:56:54.472Z,-3.52
2023-01-26T03:57:25.455Z,-3.52
2023-01-26T03:57:56.604Z,-3.52
2023-01-26T03:58:27.010Z,-3.52
2023-01-26T03:58:58.061Z,-3.52
2023-01-26T03:59:30.235Z,-3.52
2023-01-26T04:00:00.218Z,-3.52
2023-01-26T04:00:34.791Z,-3.52
2023-01-26T04:01:02.097Z,-3.52
2023-01-26T04:01:33.227Z,-3.52
2023-01-26T04:02:04.361Z,-3.52
2023-01-26T04:02:35.385Z,-3.52
2023-01-26T04:03:06.138Z,-3.52
2023-01-26T04:03:37.377Z,-3.52
2023-01-26T04:04:08.804Z,-3.52
2023-01-26T04:04:42.645Z,-3.52
2023-01-26T04:05:11.555Z,-3.52
2023-01-26T04:05:41.111Z,-3.52
2023-01-26T04:06:16.269Z,-3.52
2023-01-26T04:06:43.314Z,-3.52
2023-01-26T04:07:14.405Z,-3.52
2023-01-26T04:07:45.335Z,-3.52
2023-01-26T04:08:16.481Z,-3.52
2023-01-26T04:08:47.660Z,-3.52
2023-01-26T04:09:18.373Z,-3.52
2023-01-26T04:09:50.539Z,-3.52
2023-01-26T04:10:21.193Z,-3.52
2023-01-26T04:10:51.247Z,-3.52
2023-01-26T04:11:22.208Z,-3.52
2023-01-26T04:11:53.698Z,-3.52
2023-01-26T04:12:24.870Z,-3.52
2023-01-26T04:12:55.127Z,-3.52
2023-01-26T04:13:26.321Z,-3.52
2023-01-26T04:13:57.154Z,-3.52
2023-01-26T04:14:28.557Z,-3.52
2023-01-26T04:15:00.473Z,-3.52
2023-01-26T04:15:33.340Z,-3.52
2023-01-26T04:16:01.621Z,-3.52
2023-01-26T04:19:07.432Z,-3.52
2023-01-26T04:19:38.063Z,-3.52
2023-01-26T04:20:10.563Z,-3.52
2023-01-26T04:20:40.274Z,-3.52
2023-01-26T04:21:11.112Z,-3.52
2023-01-26T04:21:42.392Z,-3.52
2023-01-26T04:22:13.172Z,-3.52
2023-01-26T04:22:44.138Z,-3.52
2023-01-26T04:23:15.176Z,-3.52
2023-01-26T04:23:46.966Z,-3.52
2023-01-26T04:24:17.651Z,-3.52
2023-01-26T04:24:48.138Z,-3.52
2023-01-26T04:25:20.439Z,-3.52
2023-01-26T04:25:50.374Z,-3.52
2023-01-26T04:26:21.490Z,-3.52
2023-01-26T04:26:52.303Z,-3.52
2023-01-26T04:27:23.349Z,-3.52
2023-01-26T04:27:54.142Z,-3.52
2023-01-26T04:28:26.478Z,-3.52
2023-01-26T04:28:56.622Z,-3.52
2023-01-26T04:29:27.764Z,-3.52
2023-01-26T04:29:58.265Z,-3.52
2023-01-26T04:30:33.516Z,-3.52
2023-01-26T04:31:00.820Z,-3.52
2023-01-26T04:31:33.316Z,-3.52
2023-01-26T04:32:02.155Z,-3.52
2023-01-26T04:32:33.583Z,-3.52
2023-01-26T04:33:04.248Z,-3.52
2023-01-26T04:33:35.660Z,-3.52
2023-01-26T04:34:06.182Z,-3.52
2023-01-26T04:34:37.179Z,-3.52
2023-01-26T04:35:08.665Z,-3.52
2023-01-26T04:35:40.108Z,-3.52
2023-01-26T04:36:11.068Z,-3.52
2023-01-26T04:36:41.315Z,-3.52
2023-01-26T04:37:12.076Z,-3.52
2023-01-26T04:37:43.281Z,-3.52
2023-01-26T04:38:14.392Z,-3.52
2023-01-26T04:38:45.409Z,-3.52
2023-01-26T04:39:16.391Z,-3.52
2023-01-26T04:39:47.335Z,-3.52
2023-01-26T04:40:18.480Z,-3.52
2023-01-26T04:40:50.259Z,-3.52
2023-01-26T04:41:20.716Z,-3.52
2023-01-26T04:41:51.473Z,-3.52
2023-01-26T04:42:22.557Z,-3.52
2023-01-26T04:42:53.538Z,-3.52
2023-01-26T04:43:24.418Z,-3.52
2023-01-26T04:43:55.212Z,-3.52
2023-01-26T04:44:26.185Z,-3.52
2023-01-26T04:44:57.509Z,-3.52
2023-01-26T04:45:30.929Z,-3.52
2023-01-26T04:46:00.476Z,-3.52
2023-01-26T04:46:30.304Z,-3.52
2023-01-26T04:47:01.468Z,-3.52
2023-01-26T04:47:32.317Z,-3.52
2023-01-26T04:48:03.761Z,-3.52
2023-01-26T04:48:36.214Z,-3.52
2023-01-26T04:49:05.251Z,-3.52
2023-01-26T04:49:36.798Z,-3.52
2023-01-26T04:50:08.301Z,-3.52
2023-01-26T04:50:38.535Z,-3.52
2023-01-26T04:51:10.458Z,-3.52
2023-01-26T04:51:40.254Z,-3.52
2023-01-26T04:52:11.351Z,-3.52
2023-01-26T04:52:42.500Z,-3.52
2023-01-26T04:53:13.706Z,-3.52
2023-01-26T04:53:44.556Z,-3.52
2023-01-26T04:54:15.259Z,-3.52
2023-01-26T04:54:46.506Z,-3.52
2023-01-26T04:55:17.292Z,-3.52
2023-01-26T04:55:48.337Z,-3.52
2023-01-26T04:56:21.012Z,-3.52
2023-01-26T04:56:50.703Z,-3.52
2023-01-26T04:57:21.337Z,-3.52
2023-01-26T04:57:52.430Z,-3.52
2023-01-26T04:58:23.304Z,-3.52
2023-01-26T04:58:54.322Z,-3.52
2023-01-26T04:59:25.206Z,-3.52
2023-01-26T04:59:56.348Z,-3.52
2023-01-26T05:00:30.272Z,-3.52
2023-01-26T05:00:58.049Z,-3.52
2023-01-26T05:01:30.416Z,-3.52
2023-01-26T05:02:00.422Z,-3.52
2023-01-26T05:02:31.501Z,-3.52
2023-01-26T05:03:02.463Z,-3.52
2023-01-26T05:03:33.501Z,-3.52
2023-01-26T05:04:04.600Z,-3.52
2023-01-26T05:04:35.429Z,-3.52
2023-01-26T05:05:08.802Z,-3.52
2023-01-26T05:05:37.533Z,-3.52
2023-01-26T05:06:08.341Z,-3.52
2023-01-26T05:06:40.361Z,-3.52
2023-01-26T05:07:11.709Z,-3.52
2023-01-26T05:07:41.652Z,-3.52
2023-01-26T05:08:12.694Z,-3.52
2023-01-26T05:08:43.334Z,-3.52
2023-01-26T05:09:14.536Z,-3.52
2023-01-26T05:09:45.412Z,-3.52
2023-01-26T05:10:16.577Z,-3.52
2023-01-26T05:10:47.830Z,-3.52
2023-01-26T05:11:18.786Z,-3.52
2023-01-26T05:11:50.510Z,-3.52
2023-01-26T05:12:20.547Z,-3.52
2023-01-26T05:12:52.189Z,-3.52
2023-01-26T05:13:22.687Z,-3.52
2023-01-26T05:13:53.398Z,-3.52
2023-01-26T05:14:24.571Z,-3.52
2023-01-26T05:14:55.521Z,-3.52
2023-01-26T05:15:29.388Z,-3.52
2023-01-26T05:15:57.494Z,-3.52
2023-01-26T05:16:28.389Z,-3.63
2023-01-26T05:17:01.901Z,-3.63
2023-01-26T05:17:31.011Z,-3.52
2023-01-26T05:18:01.287Z,-3.52
2023-01-26T05:18:34.063Z,-3.52
2023-01-26T05:19:03.488Z,-3.52
2023-01-26T05:19:34.260Z,-3.52
2023-01-26T05:20:05.447Z,-3.52
2023-01-26T05:20:36.405Z,-3.52
2023-01-26T05:21:07.230Z,-3.52
2023-01-26T05:21:38.201Z,-3.52
2023-01-26T05:22:12.413Z,-3.52
2023-01-26T05:22:40.414Z,-3.52
2023-01-26T05:23:11.562Z,-3.52
2023-01-26T05:23:42.602Z,-3.52
2023-01-26T05:24:13.804Z,-3.52
2023-01-26T05:24:44.686Z,-3.52
2023-01-26T05:25:16.309Z,-3.52
2023-01-26T05:25:46.858Z,-3.52
2023-01-26T05:26:17.314Z,-3.52
2023-01-26T05:26:48.377Z,-3.52
2023-01-26T05:27:20.222Z,-3.52
2023-01-26T05:27:50.383Z,-3.63
2023-01-26T05:28:21.411Z,-3.63
2023-01-26T05:28:52.162Z,-3.63
2023-01-26T05:29:23.093Z,-3.63
2023-01-26T05:29:54.269Z,-3.63
2023-01-26T05:30:28.325Z,-3.63
2023-01-26T05:30:56.800Z,-3.63
2023-01-26T05:31:27.449Z,-3.52
2023-01-26T05:31:58.095Z,-3.52
2023-01-26T05:32:30.327Z,-3.52
2023-01-26T05:33:00.146Z,-3.52
2023-01-26T05:33:31.476Z,-3.52
2023-01-26T05:34:02.560Z,-3.52
2023-01-26T05:34:33.300Z,-3.52
2023-01-26T05:35:05.658Z,-3.52
2023-01-26T05:35:35.518Z,-3.52
2023-01-26T05:36:06.424Z,-3.52
2023-01-26T05:36:37.449Z,-3.52
2023-01-26T05:37:08.282Z,-3.39
2023-01-26T05:37:40.157Z,-3.39
2023-01-26T05:38:11.178Z,-3.39
2023-01-26T05:38:41.641Z,-3.39
2023-01-26T05:39:12.789Z,-3.39
2023-01-26T05:39:43.338Z,-3.39
2023-01-26T05:40:14.558Z,-3.39
2023-01-26T05:40:45.550Z,-3.39
2023-01-26T05:41:16.069Z,-3.39
2023-01-26T05:41:47.330Z,-3.39
2023-01-26T05:42:18.501Z,-3.39
2023-01-26T05:42:50.671Z,-3.39
2023-01-26T05:43:20.495Z,-3.39
2023-01-26T05:43:51.360Z,-3.39
2023-01-26T05:44:22.516Z,-3.39
2023-01-26T05:44:53.443Z,-3.39
2023-01-26T05:45:27.619Z,-3.39
2023-01-26T05:45:55.211Z,-3.39
2023-01-26T05:46:26.416Z,-3.39
2023-01-26T05:46:57.361Z,-3.39
2023-01-26T05:47:28.819Z,-3.39
2023-01-26T05:48:00.735Z,-3.39
2023-01-26T05:48:31.527Z,-3.39
2023-01-26T05:49:01.578Z,-3.39
2023-01-26T05:49:32.434Z,-3.39
2023-01-26T05:50:03.498Z,-3.39
2023-01-26T05:50:35.001Z,-3.39
2023-01-26T05:51:05.574Z,-3.39
2023-01-26T05:51:36.443Z,-3.39
2023-01-26T05:52:07.840Z,-3.39
2023-01-26T05:52:38.635Z,-3.39
2023-01-26T05:53:10.345Z,-3.39
2023-01-26T05:53:40.076Z,-3.39
2023-01-26T05:54:11.409Z,-3.39
2023-01-26T05:54:42.120Z,-3.39
2023-01-26T05:55:13.078Z,-3.39
2023-01-26T05:55:44.165Z,-3.39
2023-01-26T05:56:15.619Z,-3.39
2023-01-26T05:56:46.614Z,-3.39
2023-01-26T05:57:17.711Z,-3.39
2023-01-26T05:57:48.446Z,-3.39
2023-01-26T05:58:20.837Z,-3.39
2023-01-26T05:58:50.535Z,-3.39
2023-01-26T05:59:21.479Z,-3.39
2023-01-26T05:59:52.432Z,-3.39
2023-01-26T06:00:26.095Z,-3.39
2023-01-26T06:00:54.414Z,-3.39
2023-01-26T06:01:25.443Z,-3.39
2023-01-26T06:01:56.285Z,-3.39
2023-01-26T06:02:27.759Z,-3.39
2023-01-26T06:02:58.537Z,-3.39
2023-01-26T06:03:30.610Z,-3.39
2023-01-26T06:04:00.620Z,-3.39
2023-01-26T06:04:31.391Z,-3.39
2023-01-26T06:05:02.327Z,-3.39
2023-01-26T06:05:33.672Z,-3.39
2023-01-26T06:06:04.501Z,-3.39
2023-01-26T06:06:35.586Z,-3.39
2023-01-26T06:07:06.954Z,-3.39
2023-01-26T06:07:37.643Z,-3.39
2023-01-26T06:08:08.479Z,-3.39
2023-01-26T06:08:40.481Z,-3.39
2023-01-26T06:09:11.299Z,-3.39
2023-01-26T06:09:41.203Z,-3.39
2023-01-26T06:10:12.592Z,-3.39
2023-01-26T06:10:43.780Z,-3.39
2023-01-26T06:11:14.552Z,-3.39
2023-01-26T06:11:45.314Z,-3.39
2023-01-26T06:12:16.385Z,-3.39
2023-01-26T06:12:47.545Z,-3.39
2023-01-26T06:13:18.766Z,-3.39
2023-01-26T06:13:50.234Z,-3.39
2023-01-26T06:14:20.675Z,-3.39
2023-01-26T06:14:51.587Z,-3.39
2023-01-26T06:15:25.154Z,-3.39
2023-01-26T06:15:53.332Z,-3.39
2023-01-26T06:16:24.363Z,-3.39
2023-01-26T06:16:55.440Z,-3.39
2023-01-26T06:17:26.066Z,-3.39
2023-01-26T06:17:57.548Z,-3.39
2023-01-26T06:18:28.590Z,-3.39
2023-01-26T06:19:00.415Z,-3.39
2023-01-26T06:19:30.822Z,-3.39
2023-01-26T06:20:01.681Z,-3.39
2023-01-26T06:20:32.738Z,-3.39
2023-01-26T06:21:03.407Z,-3.39
2023-01-26T06:21:34.415Z,-3.39
2023-01-26T06:22:05.728Z,-3.39
2023-01-26T06:22:36.379Z,-3.39
2023-01-26T06:23:07.443Z,-3.39
2023-01-26T06:23:38.221Z,-3.39
2023-01-26T06:24:10.276Z,-3.39
2023-01-26T06:24:40.041Z,-3.39
2023-01-26T06:25:11.302Z,-3.39
2023-01-26T06:25:42.330Z,-3.39
2023-01-26T06:26:13.281Z,-3.39
2023-01-26T06:26:44.246Z,-3.39
2023-01-26T06:27:15.366Z,-3.39
2023-01-26T06:27:46.279Z,-3.39
2023-01-26T06:28:17.555Z,-3.39
2023-01-26T06:28:48.765Z,-3.39
2023-01-26T06:29:20.434Z,-3.39
2023-01-26T06:29:50.618Z,-3.39
2023-01-26T06:30:24.630Z,-3.39
2023-01-26T06:30:52.965Z,-3.39
2023-01-26T06:31:23.643Z,-3.39
2023-01-26T06:31:54.430Z,-3.39
2023-01-26T06:32:25.499Z,-3.39
2023-01-26T06:32:58.839Z,-3.39
2023-01-26T06:33:27.433Z,-3.39
2023-01-26T06:33:58.118Z,-3.39
2023-01-26T06:34:30.586Z,-3.39
2023-01-26T06:35:00.515Z,-3.39
2023-01-26T06:35:31.730Z,-3.39
2023-01-26T06:36:02.616Z,-3.39
2023-01-26T06:36:33.639Z,-3.39
2023-01-26T06:37:04.506Z,-3.39
2023-01-26T06:37:35.499Z,-3.39
2023-01-26T06:38:06.250Z,-3.39
2023-01-26T06:38:37.574Z,-3.39
2023-01-26T06:39:08.392Z,-3.39
2023-01-26T06:39:40.169Z,-3.39
2023-01-26T06:40:11.577Z,-3.39
2023-01-26T06:40:41.318Z,-3.39
2023-01-26T06:41:12.545Z,-3.39
2023-01-26T06:41:43.712Z,-3.39
2023-01-26T06:42:14.652Z,-3.39
2023-01-26T06:42:45.771Z,-3.39
2023-01-26T06:43:16.384Z,-3.39
2023-01-26T06:43:47.606Z,-3.39
2023-01-26T06:44:18.487Z,-3.39
2023-01-26T06:44:50.413Z,-3.39
2023-01-26T06:45:23.340Z,-3.39
2023-01-26T06:45:51.304Z,-3.39
2023-01-26T06:46:22.499Z,-3.39
2023-01-26T06:46:53.181Z,-3.39
2023-01-26T06:47:24.264Z,-3.39
2023-01-26T06:47:55.514Z,-3.39
2023-01-26T06:48:27.013Z,-3.39
2023-01-26T06:48:58.091Z,-3.39
2023-01-26T06:49:28.743Z,-3.39